Time;durP1;ratioP1;P1;durP2;ratioP2;P2;SDS_P1;SDS_P2;PMS_P1;PMS_P2;Temp;Humidity;BMP_temperature;BMP_pressure;BME280_temperature;BME280_humidity;BME280_pressure;Samples;Min_cycle;Max_cycle;Signal;HPM_P1;HPM_P2
2022/01/28 00:01:40;;;;;;;9.18;2.83;;;;;;;;;;10311204;28;20055;-66
2022/01/28 00:06:43;;;;;;;12.85;3.00;;;;;;;;;;10324416;28;20322;-66
2022/01/28 00:11:45;;;;;;;8.18;2.00;;;;;;;;;;10311418;28;20043;-66
2022/01/28 00:17:27;;;;;;;9.30;3.00;;;;;;;;;;10310020;28;20110;-66
2022/01/28 00:38:28;;;;;;;12.93;3.20;;;;;;;;;;10310881;28;20070;-66
2022/01/28 00:43:31;;;;;;;11.30;2.80;;;;;;;;;;10310443;28;20050;-65
2022/01/28 00:48:35;;;;;;;15.35;2.55;;;;;;;;;;10308946;28;20034;-65
2022/01/28 00:53:37;;;;;;;15.65;4.07;;;;;;;;;;10308896;28;20054;-66
2022/01/28 00:58:39;;;;;;;11.98;3.13;;;;;;;;;;10310057;28;20089;-65
2022/01/28 01:03:43;;;;;;;9.43;2.67;;;;;;;;;;10308587;28;20429;-65
2022/01/28 01:08:45;;;;;;;8.23;2.47;;;;;;;;;;10308631;28;20243;-65
2022/01/28 01:13:49;;;;;;;6.93;2.30;;;;;;;;;;10309848;28;20067;-66
2022/01/28 01:19:02;;;;;;;7.05;2.97;;;;;;;;;;10309262;28;20142;-66
2022/01/28 01:24:07;;;;;;;10.13;2.35;;;;;;;;;;10329075;28;20380;-66
2022/01/28 01:29:12;;;;;;;5.93;2.25;;;;;;;;;;10315854;28;20043;-66
2022/01/28 01:34:19;;;;;;;9.13;1.88;;;;;;;;;;10316600;28;20086;-66
2022/01/28 01:39:24;;;;;;;7.15;2.75;;;;;;;;;;10315176;28;20070;-66
2022/01/28 01:44:37;;;;;;;;;;;;;;;;;;10329407;28;20047;-65
2022/01/28 01:55:00;;;;;;;8.88;2.30;;;;;;;;;;10328425;28;20046;-66
2022/01/28 02:00:05;;;;;;;5.57;2.00;;;;;;;;;;10315319;28;20043;-65
2022/01/28 02:05:09;;;;;;;3.00;1.70;;;;;;;;;;10314447;28;20078;-65
2022/01/28 02:10:11;;;;;;;5.90;1.77;;;;;;;;;;10314623;28;20063;-65
2022/01/28 02:15:14;;;;;;;5.05;1.70;;;;;;;;;;10314799;28;20110;-65
2022/01/28 02:20:20;;;;;;;4.18;1.80;;;;;;;;;;10314423;28;20042;-66
2022/01/28 02:25:25;;;;;;;5.50;2.17;;;;;;;;;;10327487;28;20045;-66
2022/01/28 02:30:28;;;;;;;4.45;1.80;;;;;;;;;;10313886;28;20082;-64
2022/01/28 02:35:32;;;;;;;2.47;1.60;;;;;;;;;;10313523;28;20216;-66
2022/01/28 02:40:35;;;;;;;2.45;1.30;;;;;;;;;;10313020;28;20231;-66
2022/01/28 02:45:40;;;;;;;3.90;1.70;;;;;;;;;;10314345;28;20053;-65
2022/01/28 02:50:51;;;;;;;4.82;1.70;;;;;;;;;;10313718;28;20055;-65
2022/01/28 02:55:58;;;;;;;3.55;1.88;;;;;;;;;;10327811;28;20043;-66
2022/01/28 03:01:00;;;;;;;4.85;1.63;;;;;;;;;;10291193;28;20241;-66
2022/01/28 03:06:04;;;;;;;2.83;1.70;;;;;;;;;;10312156;28;20082;-66
2022/01/28 03:11:31;;;;;;;4.28;1.63;;;;;;;;;;10312104;28;20070;-66
2022/01/28 03:16:35;;;;;;;5.35;2.10;;;;;;;;;;10324425;28;20038;-66
2022/01/28 03:21:42;;;;;;;4.43;1.95;;;;;;;;;;10312457;28;20062;-66
2022/01/28 03:26:46;;;;;;;4.88;2.05;;;;;;;;;;10324675;28;20047;-65
2022/01/28 03:31:49;;;;;;;9.87;2.43;;;;;;;;;;10308404;28;20050;-65
2022/01/28 03:36:53;;;;;;;5.75;2.30;;;;;;;;;;10311098;28;20274;-65
2022/01/28 03:41:56;;;;;;;6.97;2.30;;;;;;;;;;10309514;28;20055;-65
2022/01/28 03:46:58;;;;;;;7.45;2.25;;;;;;;;;;10311225;28;20055;-66
2022/01/28 03:52:02;;;;;;;9.38;2.25;;;;;;;;;;10309841;28;20054;-65
2022/01/28 03:57:07;;;;;;;12.10;3.13;;;;;;;;;;10311157;28;20050;-65
2022/01/28 04:02:10;;;;;;;12.73;3.70;;;;;;;;;;10311287;28;20058;-66
2022/01/28 04:12:38;;;;;;;9.15;2.58;;;;;;;;;;10324197;28;20054;-65
2022/01/28 04:17:40;;;;;;;10.95;2.97;;;;;;;;;;10311529;28;20051;-65
2022/01/28 04:22:44;;;;;;;16.63;3.15;;;;;;;;;;10310971;28;20061;-66
2022/01/28 04:27:46;;;;;;;16.10;3.30;;;;;;;;;;10295490;28;20047;-65
2022/01/28 04:32:51;;;;;;;10.35;2.65;;;;;;;;;;10311102;28;20054;-65
2022/01/28 04:38:06;;;;;;;8.13;2.80;;;;;;;;;;10306708;28;20094;-66
2022/01/28 04:43:14;;;;;;;14.00;3.40;;;;;;;;;;10322398;28;20051;-66
2022/01/28 04:48:25;;;;;;;17.75;3.83;;;;;;;;;;10324113;28;20258;-66
2022/01/28 04:53:41;;;;;;;13.15;3.13;;;;;;;;;;10310214;28;20338;-65
2022/01/28 04:58:59;;;;;;;16.52;3.42;;;;;;;;;;10316956;28;20070;-65
2022/01/28 05:04:16;;;;;;;9.55;2.60;;;;;;;;;;10318604;28;20050;-65
2022/01/28 05:30:37;;;;;;;17.10;3.78;;;;;;;;;;10233324;29;20063;-66
2022/01/28 05:35:40;;;;;;;13.55;2.97;;;;;;;;;;10233363;29;20063;-66
2022/01/28 05:40:43;;;;;;;16.40;3.70;;;;;;;;;;10230925;29;20361;-65
2022/01/28 05:45:47;;;;;;;13.90;2.78;;;;;;;;;;10232023;29;20074;-66
2022/01/28 05:50:49;;;;;;;15.13;3.70;;;;;;;;;;10232656;29;20167;-65
2022/01/28 05:55:53;;;;;;;8.20;2.55;;;;;;;;;;10232271;29;20269;-65
2022/01/28 06:00:55;;;;;;;11.35;2.35;;;;;;;;;;10279599;28;20296;-66
2022/01/28 06:05:58;;;;;;;12.90;3.92;;;;;;;;;;10312799;28;20054;-66
2022/01/28 06:11:02;;;;;;;15.93;3.33;;;;;;;;;;10313398;28;20060;-67
2022/01/28 06:16:04;;;;;;;33.63;9.15;;;;;;;;;;10314336;28;20054;-66
2022/01/28 06:21:07;;;;;;;12.80;3.55;;;;;;;;;;10312871;28;20238;-65
2022/01/28 06:26:10;;;;;;;17.95;3.65;;;;;;;;;;10314714;28;20133;-66
2022/01/28 06:31:13;;;;;;;12.32;3.33;;;;;;;;;;10313163;28;20047;-66
2022/01/28 06:36:15;;;;;;;8.05;3.08;;;;;;;;;;10314182;28;20147;-66
2022/01/28 06:41:19;;;;;;;10.20;3.13;;;;;;;;;;10311762;28;20067;-69
2022/01/28 06:46:22;;;;;;;15.38;3.63;;;;;;;;;;10313185;28;20039;-65
2022/01/28 06:51:24;;;;;;;10.68;3.33;;;;;;;;;;10312028;28;20047;-70
2022/01/28 06:56:28;;;;;;;12.45;3.83;;;;;;;;;;10313344;28;20043;-68
2022/01/28 07:01:30;;;;;;;10.02;3.17;;;;;;;;;;10312150;28;20049;-68
2022/01/28 07:06:33;;;;;;;17.25;3.17;;;;;;;;;;10312304;28;20063;-67
2022/01/28 07:11:36;;;;;;;20.63;4.25;;;;;;;;;;10311995;28;20035;-67
2022/01/28 07:16:39;;;;;;;19.90;3.38;;;;;;;;;;10311081;28;20368;-68
2022/01/28 07:21:41;;;;;;;12.18;3.42;;;;;;;;;;10312199;28;20050;-68
2022/01/28 07:26:46;;;;;;;13.73;3.78;;;;;;;;;;10299162;28;20046;-67
2022/01/28 07:31:48;;;;;;;12.63;3.13;;;;;;;;;;10311949;28;20337;-65
2022/01/28 07:36:51;;;;;;;13.25;4.35;;;;;;;;;;10309823;28;20042;-66
2022/01/28 07:41:55;;;;;;;10.90;4.47;;;;;;;;;;10310129;28;20065;-67
2022/01/28 07:46:57;;;;;;;21.92;6.65;;;;;;;;;;10312112;28;20042;-67
2022/01/28 07:52:00;;;;;;;13.00;4.43;;;;;;;;;;10311456;28;20054;-66
2022/01/28 07:57:05;;;;;;;14.57;3.83;;;;;;;;;;10312243;28;20042;-66
2022/01/28 08:02:08;;;;;;;14.00;4.75;;;;;;;;;;10312066;28;20047;-66
2022/01/28 08:07:10;;;;;;;7.30;2.70;;;;;;;;;;10310783;28;20073;-68
2022/01/28 08:12:15;;;;;;;8.40;3.03;;;;;;;;;;10311692;28;20054;-68
2022/01/28 08:17:17;;;;;;;19.90;6.70;;;;;;;;;;10310345;28;20039;-68
2022/01/28 08:22:20;;;;;;;24.83;6.93;;;;;;;;;;10311485;28;20254;-68
2022/01/28 08:27:24;;;;;;;32.42;10.82;;;;;;;;;;10306787;28;20089;-69
2022/01/28 08:32:27;;;;;;;32.30;9.10;;;;;;;;;;10291306;28;20480;-69
2022/01/28 08:37:29;;;;;;;18.52;5.82;;;;;;;;;;10311321;28;20074;-68
2022/01/28 08:42:34;;;;;;;2.58;2.20;;;;;;;;;;10310051;28;20176;-68
2022/01/28 08:47:36;;;;;;;3.37;1.70;;;;;;;;;;10310198;28;20050;-67
2022/01/28 08:52:38;;;;;;;6.45;2.22;;;;;;;;;;10309563;28;20046;-67
2022/01/28 08:57:43;;;;;;;7.95;2.10;;;;;;;;;;10309910;28;20128;-68
2022/01/28 09:02:46;;;;;;;6.82;2.53;;;;;;;;;;10309629;28;20250;-70
2022/01/28 09:07:48;;;;;;;30.08;4.25;;;;;;;;;;10309043;28;20085;-68
2022/01/28 09:13:10;;;;;;;5.20;2.35;;;;;;;;;;10309219;28;20248;-68
2022/01/28 09:18:13;;;;;;;6.78;2.28;;;;;;;;;;10308847;28;20065;-68
2022/01/28 09:23:15;;;;;;;6.78;2.63;;;;;;;;;;10308458;28;20062;-68
2022/01/28 09:28:19;;;;;;;2.10;1.50;;;;;;;;;;10308977;28;20436;-68
2022/01/28 09:33:21;;;;;;;4.63;1.80;;;;;;;;;;10308489;28;20242;-69
2022/01/28 09:38:24;;;;;;;15.38;2.33;;;;;;;;;;10306378;28;20067;-67
2022/01/28 09:43:28;;;;;;;4.40;2.05;;;;;;;;;;10313608;28;20046;-67
2022/01/28 09:48:33;;;;;;;5.88;1.45;;;;;;;;;;10316143;28;20058;-67
2022/01/28 09:53:35;;;;;;;13.20;2.63;;;;;;;;;;10315855;28;20078;-67
2022/01/28 09:58:39;;;;;;;8.80;1.80;;;;;;;;;;10316118;28;20043;-69
2022/01/28 10:03:41;;;;;;;3.20;2.13;;;;;;;;;;10315701;28;20215;-69
2022/01/28 10:08:53;;;;;;;5.90;1.60;;;;;;;;;;10316727;28;20058;-68
2022/01/28 10:14:08;;;;;;;2.65;2.00;;;;;;;;;;10316805;28;20085;-68
2022/01/28 10:19:11;;;;;;;3.78;2.03;;;;;;;;;;10327066;28;20235;-67
2022/01/28 10:24:16;;;;;;;3.95;2.55;;;;;;;;;;10315701;28;20046;-67
2022/01/28 10:29:23;;;;;;;3.50;2.03;;;;;;;;;;10302583;28;20245;-67
2022/01/28 10:34:29;;;;;;;2.28;1.80;;;;;;;;;;10314196;28;20054;-67
2022/01/28 10:39:31;;;;;;;9.45;3.95;;;;;;;;;;10323285;28;20061;-67
2022/01/28 10:44:51;;;;;;;22.80;5.28;;;;;;;;;;10312908;28;20346;-66
2022/01/28 10:49:54;;;;;;;16.50;3.85;;;;;;;;;;10314054;28;20042;-67
2022/01/28 10:54:57;;;;;;;6.82;2.47;;;;;;;;;;10312674;28;20051;-68
2022/01/28 11:00:03;;;;;;;7.30;3.20;;;;;;;;;;10314075;28;20105;-68
2022/01/28 11:05:06;;;;;;;10.38;4.30;;;;;;;;;;10314075;28;20288;-68
2022/01/28 11:10:09;;;;;;;8.20;2.67;;;;;;;;;;10313154;28;20223;-67
2022/01/28 11:15:13;;;;;;;25.17;3.67;;;;;;;;;;10312674;28;20050;-67
2022/01/28 11:20:20;;;;;;;12.48;5.22;;;;;;;;;;10313725;28;20043;-67
2022/01/28 11:25:36;;;;;;;3.22;2.15;;;;;;;;;;10326757;28;20287;-67
2022/01/28 11:30:47;;;;;;;7.80;5.00;;;;;;;;;;10325397;28;20047;-67
2022/01/28 11:36:04;;;;;;;6.95;4.50;;;;;;;;;;10321340;28;20046;-67
2022/01/28 11:41:09;;;;;;;1.90;1.60;;;;;;;;;;10310669;28;20062;-66
2022/01/28 11:46:19;;;;;;;4.70;2.58;;;;;;;;;;10310627;28;20043;-66
2022/01/28 11:51:22;;;;;;;2.35;1.88;;;;;;;;;;10323668;28;20062;-66
2022/01/28 11:56:25;;;;;;;10.45;4.18;;;;;;;;;;10311365;28;20043;-69
2022/01/28 12:02:08;;;;;;;6.13;3.60;;;;;;;;;;10311240;28;20081;-67
2022/01/28 12:07:14;;;;;;;2.63;1.60;;;;;;;;;;10309133;28;20069;-69
2022/01/28 12:12:36;;;;;;;4.35;2.10;;;;;;;;;;10323675;28;20041;-68
2022/01/28 12:17:50;;;;;;;2.60;1.48;;;;;;;;;;10301805;28;20346;-67
2022/01/28 12:23:38;;;;;;;2.72;1.70;;;;;;;;;;10322846;28;20038;-68
2022/01/28 12:28:52;;;;;;;4.45;2.20;;;;;;;;;;10321954;28;20034;-67
2022/01/28 12:33:58;;;;;;;11.20;2.72;;;;;;;;;;10323078;28;20250;-68
2022/01/28 12:39:11;;;;;;;8.85;2.10;;;;;;;;;;10318195;28;20067;-67
2022/01/28 12:44:16;;;;;;;2.63;1.58;;;;;;;;;;10296549;28;20371;-68
2022/01/28 12:49:25;;;;;;;4.18;1.83;;;;;;;;;;10322620;28;20042;-67
2022/01/28 12:54:39;;;;;;;5.30;3.45;;;;;;;;;;10321774;28;20055;-67
2022/01/28 12:59:45;;;;;;;21.60;2.97;;;;;;;;;;10309423;28;20055;-68
2022/01/28 13:04:56;;;;;;;13.35;2.50;;;;;;;;;;10308785;28;20270;-67
2022/01/28 13:09:59;;;;;;;17.38;2.28;;;;;;;;;;10322511;28;20054;-67
2022/01/28 13:15:07;;;;;;;8.75;2.25;;;;;;;;;;10310350;28;20042;-68
2022/01/28 13:20:11;;;;;;;17.65;3.30;;;;;;;;;;10305812;28;20046;-69
2022/01/28 13:25:19;;;;;;;10.18;2.67;;;;;;;;;;10317279;28;20058;-68
2022/01/28 13:30:21;;;;;;;21.08;3.78;;;;;;;;;;10316761;28;20051;-69
2022/01/28 13:35:26;;;;;;;5.50;2.28;;;;;;;;;;10315396;28;20047;-66
2022/01/28 13:40:33;;;;;;;19.33;3.87;;;;;;;;;;10316024;28;20066;-72
2022/01/28 13:45:40;;;;;;;18.65;2.75;;;;;;;;;;10329227;28;20046;-67
2022/01/28 13:50:45;;;;;;;7.20;2.03;;;;;;;;;;10329352;28;20042;-69
2022/01/28 13:55:48;;;;;;;30.08;6.18;;;;;;;;;;10317255;28;20191;-66
2022/01/28 14:00:51;;;;;;;62.78;8.38;;;;;;;;;;10312740;28;20050;-68
2022/01/28 14:05:56;;;;;;;85.68;29.55;;;;;;;;;;10316100;28;20054;-67
2022/01/28 14:10:59;;;;;;;35.05;4.80;;;;;;;;;;10314625;28;20049;-69
2022/01/28 14:16:12;;;;;;;16.00;2.50;;;;;;;;;;10315373;28;20046;-66
2022/01/28 14:21:15;;;;;;;9.27;2.53;;;;;;;;;;10328602;28;20046;-67
2022/01/28 14:26:19;;;;;;;5.25;2.30;;;;;;;;;;10313749;28;20093;-66
2022/01/28 14:31:22;;;;;;;2.67;1.88;;;;;;;;;;10303829;28;20074;-67
2022/01/28 14:36:26;;;;;;;22.60;3.30;;;;;;;;;;10313229;28;20054;-70
2022/01/28 14:41:29;;;;;;;6.20;3.13;;;;;;;;;;10313576;28;20063;-66
2022/01/28 14:46:33;;;;;;;21.92;3.70;;;;;;;;;;10314011;28;20089;-68
2022/01/28 14:51:38;;;;;;;16.15;4.07;;;;;;;;;;10314383;28;20096;-68
2022/01/28 14:56:40;;;;;;;7.88;3.40;;;;;;;;;;10288534;28;20054;-68
2022/01/28 15:01:43;;;;;;;8.02;3.95;;;;;;;;;;10273796;28;20118;-66
2022/01/28 15:06:48;;;;;;;9.95;6.63;;;;;;;;;;10303822;28;20053;-67
2022/01/28 15:11:51;;;;;;;11.68;4.78;;;;;;;;;;10326384;28;20098;-68
2022/01/28 15:16:54;;;;;;;10.18;4.70;;;;;;;;;;10312009;28;20046;-65
2022/01/28 15:21:58;;;;;;;14.18;8.25;;;;;;;;;;10312552;28;20290;-68
2022/01/28 15:27:00;;;;;;;8.43;2.50;;;;;;;;;;10313404;28;20046;-67
2022/01/28 15:37:26;;;;;;;2.92;1.83;;;;;;;;;;10314659;28;20069;-68
2022/01/28 15:42:29;;;;;;;6.10;2.67;;;;;;;;;;10311587;28;20117;-68
2022/01/28 15:47:31;;;;;;;8.23;2.53;;;;;;;;;;10310080;28;20050;-68
2022/01/28 15:52:35;;;;;;;3.50;2.47;;;;;;;;;;10312969;28;20333;-68
2022/01/28 15:57:37;;;;;;;5.35;2.88;;;;;;;;;;10312487;28;20198;-68
2022/01/28 16:02:39;;;;;;;10.45;3.80;;;;;;;;;;10312213;28;20085;-69
2022/01/28 16:07:43;;;;;;;6.97;4.25;;;;;;;;;;10312810;28;20277;-67
2022/01/28 16:13:01;;;;;;;12.40;5.93;;;;;;;;;;10309733;28;20163;-67
2022/01/28 16:18:03;;;;;;;12.90;7.03;;;;;;;;;;10324792;28;20043;-67
2022/01/28 16:23:07;;;;;;;10.73;5.38;;;;;;;;;;10310818;28;20334;-68
2022/01/28 16:28:09;;;;;;;22.90;10.60;;;;;;;;;;10311482;28;20266;-67
2022/01/28 16:33:11;;;;;;;8.07;3.17;;;;;;;;;;10310290;28;20043;-68
2022/01/28 16:38:16;;;;;;;7.88;3.55;;;;;;;;;;10308558;28;20139;-68
2022/01/28 16:43:20;;;;;;;10.35;4.03;;;;;;;;;;10310629;28;20054;-67
2022/01/28 16:48:23;;;;;;;7.30;4.05;;;;;;;;;;10311020;28;20148;-67
2022/01/28 16:53:26;;;;;;;13.38;5.20;;;;;;;;;;10316485;28;20184;-68
2022/01/28 16:58:28;;;;;;;12.85;4.95;;;;;;;;;;10318574;28;20373;-68
2022/01/28 17:03:31;;;;;;;12.95;4.90;;;;;;;;;;10318313;28;20054;-67
2022/01/28 17:08:34;;;;;;;16.08;4.50;;;;;;;;;;10318025;28;20057;-67
2022/01/28 17:13:37;;;;;;;14.90;3.85;;;;;;;;;;10317954;28;20049;-67
2022/01/28 17:18:40;;;;;;;13.35;3.40;;;;;;;;;;10317789;28;20043;-67
2022/01/28 17:23:44;;;;;;;16.45;5.82;;;;;;;;;;10317251;28;20042;-68
2022/01/28 17:28:46;;;;;;;27.88;8.38;;;;;;;;;;10317999;28;20288;-68
2022/01/28 17:33:49;;;;;;;8.63;4.13;;;;;;;;;;10317720;28;20290;-67
2022/01/28 17:38:53;;;;;;;8.48;3.35;;;;;;;;;;10315655;28;20121;-67
2022/01/28 17:43:55;;;;;;;10.75;3.25;;;;;;;;;;10316568;28;20046;-68
2022/01/28 17:48:57;;;;;;;8.73;3.33;;;;;;;;;;10316044;28;20093;-70
2022/01/28 17:54:01;;;;;;;10.52;3.42;;;;;;;;;;10316330;28;20126;-67
2022/01/28 17:59:03;;;;;;;11.85;4.30;;;;;;;;;;10315754;28;20245;-68
2022/01/28 18:04:06;;;;;;;9.40;3.15;;;;;;;;;;10315522;28;20332;-68
2022/01/28 18:09:10;;;;;;;5.45;2.35;;;;;;;;;;10316062;28;20262;-69
2022/01/28 18:14:12;;;;;;;6.55;2.65;;;;;;;;;;10315046;28;20046;-68
2022/01/28 18:19:16;;;;;;;4.95;2.90;;;;;;;;;;10316130;28;20097;-67
2022/01/28 18:24:20;;;;;;;9.23;3.28;;;;;;;;;;10313324;28;20148;-69
2022/01/28 18:29:24;;;;;;;10.60;3.55;;;;;;;;;;10314193;28;20042;-68
2022/01/28 18:34:26;;;;;;;5.53;2.45;;;;;;;;;;10314906;28;20059;-68
2022/01/28 18:39:30;;;;;;;13.77;3.35;;;;;;;;;;10313212;28;20110;-68
2022/01/28 18:44:40;;;;;;;12.48;3.58;;;;;;;;;;10313564;28;20043;-69
2022/01/28 18:49:43;;;;;;;14.07;4.13;;;;;;;;;;10323108;28;20039;-68
2022/01/28 18:54:47;;;;;;;15.15;3.88;;;;;;;;;;10313503;28;20381;-68
2022/01/28 18:59:49;;;;;;;8.13;4.30;;;;;;;;;;10312669;28;20335;-67
2022/01/28 19:04:52;;;;;;;15.43;5.07;;;;;;;;;;10312985;28;20051;-68
2022/01/28 19:09:56;;;;;;;12.10;4.20;;;;;;;;;;10305878;28;20046;-67
2022/01/28 19:14:58;;;;;;;12.65;4.53;;;;;;;;;;10310885;28;20042;-69
2022/01/28 19:20:01;;;;;;;9.02;3.90;;;;;;;;;;10312030;28;20042;-69
2022/01/28 19:25:07;;;;;;;7.57;3.30;;;;;;;;;;10310584;28;20055;-68
2022/01/28 19:30:10;;;;;;;;;;;;;;;;;;10324873;28;20043;-68
2022/01/28 19:35:13;;;;;;;13.60;4.72;;;;;;;;;;10302811;28;20106;-68
2022/01/28 19:40:21;;;;;;;18.23;5.28;;;;;;;;;;10312321;28;20070;-67
2022/01/28 19:45:23;;;;;;;12.18;3.88;;;;;;;;;;10324464;28;20047;-68
2022/01/28 19:50:27;;;;;;;10.93;4.35;;;;;;;;;;10310351;28;20066;-68
2022/01/28 19:55:31;;;;;;;19.27;6.05;;;;;;;;;;10311390;28;20065;-68
2022/01/28 20:00:33;;;;;;;11.73;4.13;;;;;;;;;;10309045;28;20097;-67
2022/01/28 20:05:36;;;;;;;22.42;6.22;;;;;;;;;;10310221;28;20055;-66
2022/01/28 20:10:40;;;;;;;29.05;6.97;;;;;;;;;;10310721;28;20098;-68
2022/01/28 20:15:43;;;;;;;22.70;6.73;;;;;;;;;;10311131;28;20219;-68
2022/01/28 20:20:45;;;;;;;46.58;9.48;;;;;;;;;;10312057;28;20335;-68
2022/01/28 20:25:51;;;;;;;25.85;5.97;;;;;;;;;;10309935;28;20042;-68
2022/01/28 20:30:54;;;;;;;27.48;8.00;;;;;;;;;;10309187;28;20049;-67
2022/01/28 20:35:57;;;;;;;39.72;9.05;;;;;;;;;;10310061;28;20117;-68
2022/01/28 20:41:01;;;;;;;30.15;8.30;;;;;;;;;;10310869;28;20058;-66
2022/01/28 20:46:04;;;;;;;33.58;8.52;;;;;;;;;;10310284;28;20047;-67
2022/01/28 20:51:11;;;;;;;53.13;13.52;;;;;;;;;;10310937;28;20050;-68
2022/01/28 20:56:15;;;;;;;41.88;9.82;;;;;;;;;;10323457;28;20045;-68
2022/01/28 21:01:17;;;;;;;31.90;9.20;;;;;;;;;;10309559;28;20357;-67
2022/01/28 21:06:22;;;;;;;78.60;15.95;;;;;;;;;;10309798;28;20039;-68
2022/01/28 21:11:25;;;;;;;43.13;11.05;;;;;;;;;;10310109;28;20042;-68
2022/01/28 21:16:28;;;;;;;46.42;10.35;;;;;;;;;;10304279;28;20054;-66
2022/01/28 21:21:30;;;;;;;28.25;7.07;;;;;;;;;;10310273;28;20046;-68
2022/01/28 21:26:34;;;;;;;15.93;5.50;;;;;;;;;;10309906;28;20050;-66
2022/01/28 21:31:36;;;;;;;17.20;4.40;;;;;;;;;;10310122;28;20035;-68
2022/01/28 21:36:39;;;;;;;16.05;6.28;;;;;;;;;;10309416;28;20047;-67
2022/01/28 21:41:43;;;;;;;18.15;5.15;;;;;;;;;;10316255;28;20099;-67
2022/01/28 21:46:45;;;;;;;18.85;5.03;;;;;;;;;;10316496;28;20050;-68
2022/01/28 21:51:48;;;;;;;25.65;6.43;;;;;;;;;;10316690;28;20050;-68
2022/01/28 21:56:51;;;;;;;23.20;7.97;;;;;;;;;;10317774;28;20055;-68
2022/01/28 22:01:53;;;;;;;17.83;6.00;;;;;;;;;;10315511;28;20042;-68
2022/01/28 22:06:56;;;;;;;31.05;8.52;;;;;;;;;;10316134;28;20042;-68
2022/01/28 22:11:59;;;;;;;20.65;7.35;;;;;;;;;;10314809;28;20046;-67
2022/01/28 22:17:02;;;;;;;20.27;6.10;;;;;;;;;;10314918;28;20042;-67
2022/01/28 22:22:05;;;;;;;22.55;7.40;;;;;;;;;;10316190;28;20050;-67
2022/01/28 22:27:08;;;;;;;57.08;19.92;;;;;;;;;;10314973;28;20212;-66
2022/01/28 22:32:11;;;;;;;39.63;12.77;;;;;;;;;;10313882;28;20042;-67
2022/01/28 22:37:13;;;;;;;21.40;6.10;;;;;;;;;;10314001;28;20311;-67
2022/01/28 22:42:17;;;;;;;16.95;5.82;;;;;;;;;;10314969;28;20066;-68
2022/01/28 22:47:20;;;;;;;17.13;6.72;;;;;;;;;;10311318;28;20058;-67
2022/01/28 22:52:22;;;;;;;16.65;6.03;;;;;;;;;;10315180;28;20356;-68
2022/01/28 22:57:26;;;;;;;29.83;8.43;;;;;;;;;;10314376;28;20346;-69
2022/01/28 23:02:28;;;;;;;21.92;7.25;;;;;;;;;;10312215;28;20054;-68
2022/01/28 23:07:31;;;;;;;26.25;7.20;;;;;;;;;;10314145;28;20062;-66
2022/01/28 23:12:34;;;;;;;22.80;7.00;;;;;;;;;;10302693;28;20201;-66
2022/01/28 23:17:37;;;;;;;35.17;8.38;;;;;;;;;;10314086;28;20047;-67
2022/01/28 23:22:40;;;;;;;12.80;5.55;;;;;;;;;;10313136;28;20361;-68
2022/01/28 23:27:46;;;;;;;16.88;6.93;;;;;;;;;;10313183;28;20046;-66
2022/01/28 23:32:48;;;;;;;20.27;10.52;;;;;;;;;;10324532;28;20046;-66
2022/01/28 23:37:51;;;;;;;16.10;6.28;;;;;;;;;;10286634;28;20389;-68
2022/01/28 23:42:55;;;;;;;15.40;5.18;;;;;;;;;;10278996;28;20051;-67
2022/01/28 23:47:57;;;;;;;22.48;7.32;;;;;;;;;;10312901;28;20073;-67
2022/01/28 23:53:00;;;;;;;19.40;6.97;;;;;;;;;;10312787;28;20059;-67
2022/01/28 23:58:03;;;;;;;19.20;5.82;;;;;;;;;;10311309;28;20093;-67
